Weather at Calgary International Airport

Public forecast

Using degrees Celsius for public forecast. Weather courtesy of forecast.io.

Current aviation weather report (METAR) for Calgary International Airport

Retrieved 2022/01/18 02:00 UTC (13 minutes ago):

CYYC 180200Z 36019G24KT 10SM FEW090 01/M02 A2956 RMK AC1 PRESRR SLP043

Aviation forecast (TAF) for Calgary International Airport

Retrieved 2022-01-18 00:42 UTC (2 hours ago):

TAF CYYC 172340Z 1800/1824 28018G28KT P6SM FEW060 BKN140 FM180200 32018G28KT P6SM -SHRA SCT020 BKN050 TEMPO 1802/1803 1SM -SHSN BKN008 OVC020 BECMG 1802/1803 35022G35KT FM180300 35025G35KT 1/2SM SHSN BLSN VV006 TEMPO 1803/1809 2SM -SHSN SCT006 OVC015 PROB30 1803/1806 1/4SM SHSN BLSN FM180900 36020G30KT 3/4SM -SN BLSN BKN008 OVC030 TEMPO 1809/1813 4SM -SN SCT008 OVC030 FM181300 36015G25KT P6SM BKN040 TEMPO 1813/1817 4SM -SN BKN020 BECMG 1813/1815 36010G20KT RMK NXT FCST BY 180300Z